Lecoma, Missouri
Current Conditions -  °F | °C
As of 5:58 PM on Thursday 27 Nov 2014 (Local Time) from KTBN Reporting Station
Clear Clear  
Wind Chill: 34°   Ceiling: Unl
Heat Index: 34°   Visibility: 10mi
Dew Point: 23°   Wind: 2mph
Humidity: 62%   Direction: 40°NE
Pressure: 30.4"   Gusts: NA
Location:  37.78°N, 91.73°W
Report Text: KTBN 272358Z AUTO 04002KT 10SM CLR 01/M05 A3040 RMK AO2 SLP308 T00131052 10035 20006 58006 $
Loading
Personal Weather Stations






























Interactive Weather Map New forecast layout! Learn more

10-Day Weather Forecast

Advertisements
Track Severe Weather on mobile